createdAt,value
2024-04-13T00:02:05.164Z,14.30
2024-04-13T00:04:31.910Z,14.30
2024-04-13T00:06:58.700Z,14.30
2024-04-13T00:09:25.496Z,14.20
2024-04-13T00:11:52.287Z,14.20
2024-04-13T00:14:19.074Z,14.20
2024-04-13T00:16:46.048Z,14.10
2024-04-13T00:19:12.928Z,14.10
2024-04-13T00:21:43.808Z,14.10
2024-04-13T00:24:12.662Z,14.10
2024-04-13T00:26:39.438Z,14.10
2024-04-13T00:29:06.145Z,14.00
2024-04-13T00:31:33.811Z,14.00
2024-04-13T00:34:02.107Z,14.00
2024-04-13T00:36:28.944Z,14.00
2024-04-13T00:38:55.757Z,14.00
2024-04-13T00:41:22.517Z,13.90
2024-04-13T00:43:49.288Z,13.90
2024-04-13T00:46:16.131Z,13.90
2024-04-13T00:48:44.525Z,13.90
2024-04-13T00:51:13.921Z,13.80
2024-04-13T00:53:42.369Z,13.80
2024-04-13T00:56:09.648Z,13.80
2024-04-13T00:58:37.725Z,13.70
2024-04-13T01:01:05.075Z,13.70
2024-04-13T01:03:35.121Z,13.70
2024-04-13T01:06:02.665Z,13.70
2024-04-13T01:08:29.604Z,13.60
2024-04-13T01:10:57.723Z,13.60
2024-04-13T01:13:24.514Z,13.60
2024-04-13T01:15:51.310Z,13.50
2024-04-13T01:18:24.209Z,13.50
2024-04-13T01:20:50.993Z,13.50
2024-04-13T01:23:31.728Z,13.50
2024-04-13T01:25:59.919Z,13.40
2024-04-13T01:31:10.123Z,13.40
2024-04-13T01:33:37.025Z,13.30
2024-04-13T01:36:04.011Z,13.30
2024-04-13T01:38:30.771Z,13.30
2024-04-13T01:41:03.535Z,13.30
2024-04-13T01:43:30.291Z,13.20
2024-04-13T01:45:57.066Z,13.20
2024-04-13T01:48:23.871Z,13.20
2024-04-13T01:50:50.865Z,13.10
2024-04-13T01:53:17.624Z,13.10
2024-04-13T01:55:46.498Z,13.10
2024-04-13T01:58:13.236Z,13.10
2024-04-13T02:00:40.393Z,13.10
2024-04-13T02:03:07.347Z,13.10
2024-04-13T02:05:38.066Z,13.10
2024-04-13T02:08:05.133Z,13.10
2024-04-13T02:10:31.861Z,13.10
2024-04-13T02:12:58.702Z,13.00
2024-04-13T02:15:25.451Z,13.00
2024-04-13T02:17:52.296Z,13.00
2024-04-13T02:20:19.110Z,13.00
2024-04-13T02:22:45.916Z,13.00
2024-04-13T02:25:12.678Z,13.00
2024-04-13T02:27:41.944Z,12.90
2024-04-13T02:30:15.016Z,12.90
2024-04-13T02:32:41.866Z,12.90
2024-04-13T02:35:08.817Z,12.90
2024-04-13T02:37:35.742Z,12.80
2024-04-13T02:40:02.582Z,12.80
2024-04-13T02:42:29.361Z,12.80
2024-04-13T02:44:58.554Z,12.70
2024-04-13T02:47:25.537Z,12.70
2024-04-13T02:49:52.345Z,12.60
2024-04-13T02:52:19.161Z,12.60
2024-04-13T02:54:45.983Z,12.60
2024-04-13T02:57:13.014Z,12.60
2024-04-13T02:59:39.800Z,12.60
2024-04-13T03:02:07.920Z,12.50
2024-04-13T03:04:35.703Z,12.50
2024-04-13T03:07:02.462Z,12.50
2024-04-13T03:09:29.244Z,12.50
2024-04-13T03:11:55.988Z,12.50
2024-04-13T03:14:32.878Z,12.50
2024-04-13T03:16:59.652Z,12.50
2024-04-13T03:19:26.784Z,12.40
2024-04-13T03:21:53.560Z,12.40
2024-04-13T03:24:20.417Z,12.40
2024-04-13T03:26:47.130Z,12.40
2024-04-13T03:29:13.891Z,12.30
2024-04-13T03:31:40.607Z,12.30
2024-04-13T03:34:07.297Z,12.30
2024-04-13T03:36:34.277Z,12.20
2024-04-13T03:39:01.247Z,12.20
2024-04-13T03:41:27.974Z,12.20
2024-04-13T03:43:55.492Z,12.10
2024-04-13T03:46:22.183Z,12.10
2024-04-13T03:48:49.033Z,12.10
2024-04-13T03:51:15.862Z,12.10
2024-04-13T03:53:42.785Z,12.10
2024-04-13T03:56:09.581Z,12.10
2024-04-13T03:58:36.340Z,12.10
2024-04-13T04:01:05.651Z,12.10
2024-04-13T04:03:32.432Z,12.00
2024-04-13T04:05:59.229Z,12.00
2024-04-13T04:08:25.941Z,12.00
2024-04-13T04:10:52.659Z,12.00
2024-04-13T04:13:19.380Z,12.00
2024-04-13T04:15:46.278Z,11.90
2024-04-13T04:18:13.327Z,11.90
2024-04-13T04:20:40.268Z,11.90
2024-04-13T04:23:06.947Z,11.90
2024-04-13T04:25:33.757Z,11.90
2024-04-13T04:28:03.816Z,11.90
2024-04-13T04:30:30.595Z,11.90
2024-04-13T04:32:57.548Z,11.90
2024-04-13T04:35:24.532Z,11.90
2024-04-13T04:37:51.276Z,11.90
2024-04-13T04:40:18.190Z,11.90
2024-04-13T04:45:25.566Z,11.90
2024-04-13T04:47:52.380Z,11.80
2024-04-13T04:50:19.167Z,11.80
2024-04-13T04:52:54.977Z,11.80
2024-04-13T04:55:21.817Z,11.80
2024-04-13T04:57:48.774Z,11.80
2024-04-13T05:00:16.230Z,11.80
2024-04-13T05:02:43.445Z,11.80
2024-04-13T05:05:10.811Z,11.80
2024-04-13T05:07:37.657Z,11.70
2024-04-13T05:10:04.763Z,11.70
2024-04-13T05:12:31.556Z,11.70
2024-04-13T05:14:58.353Z,11.80
2024-04-13T05:17:25.332Z,11.80
2024-04-13T05:19:52.113Z,11.80
2024-04-13T05:22:18.924Z,11.80
2024-04-13T05:24:45.661Z,11.80
2024-04-13T05:27:12.510Z,11.90
2024-04-13T05:29:39.261Z,11.90
2024-04-13T05:32:06.779Z,11.90
2024-04-13T05:34:33.977Z,12.00
2024-04-13T05:37:00.952Z,12.00
2024-04-13T05:39:31.317Z,12.10
2024-04-13T05:41:59.033Z,12.10
2024-04-13T05:44:25.880Z,12.20
2024-04-13T05:46:52.883Z,12.20
2024-04-13T05:49:21.103Z,12.20
2024-04-13T05:51:47.920Z,12.30
2024-04-13T05:54:14.951Z,12.40
2024-04-13T05:56:42.000Z,12.40
2024-04-13T05:59:08.729Z,12.50
2024-04-13T06:01:35.525Z,12.50
2024-04-13T06:04:02.450Z,12.60
2024-04-13T06:06:29.218Z,12.70
2024-04-13T06:08:55.982Z,12.80
2024-04-13T06:11:22.799Z,12.90
2024-04-13T06:13:49.646Z,13.00
2024-04-13T06:16:16.475Z,13.00
2024-04-13T06:18:43.364Z,13.10
2024-04-13T06:21:10.186Z,13.20
2024-04-13T06:23:37.152Z,13.20
2024-04-13T06:26:04.006Z,13.30
2024-04-13T06:28:30.803Z,13.40
2024-04-13T06:30:57.583Z,13.50
2024-04-13T06:33:24.513Z,13.60
2024-04-13T06:35:51.608Z,13.60
2024-04-13T06:38:18.823Z,13.70
2024-04-13T06:40:45.573Z,13.70
2024-04-13T06:43:12.488Z,13.80
2024-04-13T06:45:39.286Z,13.90
2024-04-13T06:48:06.890Z,13.90
2024-04-13T06:50:33.740Z,14.00
2024-04-13T06:53:00.427Z,14.10
2024-04-13T06:55:27.700Z,14.10
2024-04-13T06:57:55.640Z,14.20
2024-04-13T07:00:22.411Z,14.30
2024-04-13T07:02:49.216Z,14.30
2024-04-13T07:05:16.069Z,14.40
2024-04-13T07:07:42.778Z,14.50
2024-04-13T07:10:09.799Z,14.60
2024-04-13T07:12:36.797Z,14.70
2024-04-13T07:15:03.755Z,14.80
2024-04-13T07:17:30.757Z,14.80
2024-04-13T07:20:00.254Z,14.80
2024-04-13T07:22:31.055Z,14.90
2024-04-13T07:24:57.830Z,15.00
2024-04-13T07:27:24.663Z,15.10
2024-04-13T07:29:51.811Z,15.10
2024-04-13T07:32:18.719Z,15.20
2024-04-13T07:34:45.523Z,15.30
2024-04-13T07:37:12.505Z,15.20
2024-04-13T07:39:43.998Z,15.30
2024-04-13T07:42:13.959Z,15.30
2024-04-13T07:44:43.659Z,15.30
2024-04-13T07:47:23.311Z,15.40
2024-04-13T07:49:50.167Z,15.40
2024-04-13T07:52:16.946Z,15.50
2024-04-13T07:54:44.187Z,15.60
2024-04-13T07:57:20.164Z,15.70
2024-04-13T07:59:47.063Z,15.80
2024-04-13T08:02:13.788Z,15.80
2024-04-13T08:04:41.278Z,15.90
2024-04-13T08:07:08.444Z,16.00
2024-04-13T08:09:36.183Z,16.10
2024-04-13T08:12:02.972Z,16.20
2024-04-13T08:14:29.725Z,16.30
2024-04-13T08:16:56.544Z,16.40
2024-04-13T08:19:23.310Z,16.50
2024-04-13T08:21:50.100Z,16.60
2024-04-13T08:24:16.941Z,16.70
2024-04-13T08:26:43.718Z,16.70
2024-04-13T08:29:10.481Z,16.90
2024-04-13T08:31:37.273Z,16.90
2024-04-13T08:34:04.594Z,17.10
2024-04-13T08:36:31.432Z,17.10
2024-04-13T08:38:58.590Z,17.20
2024-04-13T08:41:34.713Z,17.30
2024-04-13T08:44:01.536Z,17.20
2024-04-13T08:46:30.083Z,17.20
2024-04-13T08:48:57.406Z,17.40
2024-04-13T08:51:25.085Z,17.50
2024-04-13T08:53:52.362Z,17.50
2024-04-13T08:56:19.595Z,17.60
2024-04-13T08:58:46.901Z,17.70
2024-04-13T09:01:18.421Z,17.70
2024-04-13T09:03:45.846Z,17.90
2024-04-13T09:06:13.378Z,18.20
2024-04-13T09:08:41.383Z,18.30
2024-04-13T09:11:09.939Z,18.40
2024-04-13T09:13:41.044Z,18.40
2024-04-13T09:16:09.363Z,18.40
2024-04-13T09:18:36.557Z,18.50
2024-04-13T09:21:03.732Z,18.50
2024-04-13T09:23:30.743Z,18.40
2024-04-13T09:26:08.045Z,18.60
2024-04-13T09:28:48.057Z,18.70
2024-04-13T09:31:16.344Z,18.80
2024-04-13T09:33:51.478Z,18.80
2024-04-13T09:36:25.503Z,18.80
2024-04-13T09:38:53.026Z,18.80
2024-04-13T09:41:19.804Z,18.90
2024-04-13T09:43:50.492Z,19.00
2024-04-13T09:46:18.825Z,19.20
2024-04-13T09:48:46.463Z,19.40
2024-04-13T09:51:13.424Z,19.60
2024-04-13T09:53:40.243Z,19.60
2024-04-13T09:56:10.298Z,19.60
2024-04-13T09:58:38.326Z,19.80
2024-04-13T10:01:06.749Z,19.90
2024-04-13T10:03:34.965Z,19.80
2024-04-13T10:06:03.664Z,19.80
2024-04-13T10:08:32.067Z,19.90
2024-04-13T10:11:00.920Z,19.80
2024-04-13T10:13:34.750Z,19.80
2024-04-13T10:16:03.096Z,19.90
2024-04-13T10:18:30.252Z,20.00
2024-04-13T10:20:57.956Z,19.90
2024-04-13T10:23:25.513Z,19.90
2024-04-13T10:25:58.978Z,20.00
2024-04-13T10:28:25.756Z,20.00
2024-04-13T10:30:54.905Z,20.10
2024-04-13T10:33:26.853Z,20.20
2024-04-13T10:35:56.711Z,20.40
2024-04-13T10:38:27.756Z,20.50
2024-04-13T10:40:55.839Z,20.60
2024-04-13T10:43:24.519Z,20.60
2024-04-13T10:46:02.333Z,20.70
2024-04-13T10:48:31.313Z,20.80
2024-04-13T10:51:00.049Z,20.90
2024-04-13T10:53:28.397Z,20.80
2024-04-13T10:55:56.937Z,20.90
2024-04-13T10:58:30.973Z,20.80
2024-04-13T11:00:58.483Z,20.80
2024-04-13T11:03:25.575Z,21.00
2024-04-13T11:05:52.820Z,21.10
2024-04-13T11:08:19.839Z,21.30
2024-04-13T11:10:49.844Z,21.30
2024-04-13T11:13:19.137Z,21.30
2024-04-13T11:16:10.996Z,21.30
2024-04-13T11:18:50.237Z,21.30
2024-04-13T11:21:18.937Z,21.20
2024-04-13T11:23:45.900Z,21.20
2024-04-13T11:26:13.224Z,21.30
2024-04-13T11:28:40.620Z,21.40
2024-04-13T11:31:07.918Z,21.30
2024-04-13T11:33:37.296Z,21.30
2024-04-13T11:36:20.607Z,21.20
2024-04-13T11:38:47.381Z,21.30
2024-04-13T11:41:23.384Z,21.40
2024-04-13T11:43:56.953Z,21.40
2024-04-13T11:46:24.934Z,21.60
2024-04-13T11:48:52.107Z,21.80
2024-04-13T11:51:23.165Z,22.00
2024-04-13T11:53:53.050Z,22.10
2024-04-13T11:56:21.041Z,22.10
2024-04-13T11:58:48.419Z,22.10
2024-04-13T12:01:15.865Z,22.10
2024-04-13T12:04:05.535Z,22.00
2024-04-13T12:06:36.828Z,22.00
2024-04-13T12:09:03.728Z,22.00
2024-04-13T12:11:30.509Z,22.20
2024-04-13T12:13:58.309Z,22.40
2024-04-13T12:16:25.336Z,22.60
2024-04-13T12:18:52.229Z,22.50
2024-04-13T12:21:37.362Z,22.40
2024-04-13T12:24:16.252Z,22.50
2024-04-13T12:26:43.224Z,22.30
2024-04-13T12:29:10.531Z,22.40
2024-04-13T12:31:37.314Z,22.40
2024-04-13T12:34:04.142Z,22.40
2024-04-13T12:36:31.088Z,22.40
2024-04-13T12:39:06.817Z,22.40
2024-04-13T12:41:33.626Z,22.30
2024-04-13T12:44:15.861Z,22.30
2024-04-13T12:46:42.754Z,22.30
2024-04-13T12:49:21.740Z,22.40
2024-04-13T12:51:48.627Z,22.50
2024-04-13T12:54:24.381Z,22.60
2024-04-13T12:56:51.240Z,22.70
2024-04-13T12:59:21.052Z,22.60
2024-04-13T13:01:47.817Z,22.70
2024-04-13T13:04:14.868Z,22.60
2024-04-13T13:06:42.851Z,22.60
2024-04-13T13:09:09.645Z,22.60
2024-04-13T13:11:36.640Z,22.50
2024-04-13T13:14:03.538Z,22.60
2024-04-13T13:16:32.655Z,22.80
2024-04-13T13:18:59.506Z,22.90
2024-04-13T13:21:26.584Z,22.90
2024-04-13T13:23:53.405Z,22.80
2024-04-13T13:26:38.153Z,22.60
2024-04-13T13:29:11.334Z,22.60
2024-04-13T13:31:38.114Z,22.80
2024-04-13T13:34:07.645Z,22.90
2024-04-13T13:36:50.181Z,22.80
2024-04-13T13:41:57.530Z,22.60
2024-04-13T13:44:29.370Z,22.50
2024-04-13T13:46:56.112Z,22.50
2024-04-13T13:49:22.970Z,22.50
2024-04-13T13:51:49.881Z,22.60
2024-04-13T13:54:16.761Z,22.60
2024-04-13T13:56:43.653Z,22.70
2024-04-13T13:59:10.405Z,22.90
2024-04-13T14:01:37.447Z,22.90
2024-04-13T14:04:04.547Z,23.00
2024-04-13T14:06:37.482Z,22.90
2024-04-13T14:09:14.529Z,23.00
2024-04-13T14:11:41.356Z,23.10
2024-04-13T14:14:13.479Z,23.20
2024-04-13T14:16:40.339Z,23.10
2024-04-13T14:19:07.330Z,23.10
2024-04-13T14:21:49.461Z,23.10
2024-04-13T14:24:16.321Z,23.00
2024-04-13T14:26:52.191Z,23.00
2024-04-13T14:29:19.458Z,23.10
2024-04-13T14:31:46.218Z,23.00
2024-04-13T14:34:29.445Z,23.00
2024-04-13T14:36:56.329Z,23.00
2024-04-13T14:39:29.433Z,22.90
2024-04-13T14:41:56.234Z,22.70
2024-04-13T14:44:36.870Z,22.70
2024-04-13T14:47:04.525Z,22.60
2024-04-13T14:49:37.353Z,22.70
2024-04-13T14:52:04.403Z,22.70
2024-04-13T14:54:34.537Z,22.80
2024-04-13T14:57:01.379Z,22.90
2024-04-13T14:59:37.095Z,22.90
2024-04-13T15:02:04.012Z,22.80
2024-04-13T15:04:34.210Z,22.80
2024-04-13T15:07:21.986Z,22.90
2024-04-13T15:10:07.605Z,23.00
2024-04-13T15:12:34.417Z,22.90
2024-04-13T15:15:04.533Z,22.80
2024-04-13T15:17:31.432Z,22.80
2024-04-13T15:20:19.359Z,22.80
2024-04-13T15:22:46.173Z,22.80
2024-04-13T15:25:22.159Z,22.70
2024-04-13T15:27:49.025Z,22.60
2024-04-13T15:30:18.939Z,22.50
2024-04-13T15:32:45.771Z,22.40
2024-04-13T15:35:12.616Z,22.40
2024-04-13T15:37:39.665Z,22.40
2024-04-13T15:40:07.306Z,22.50
2024-04-13T15:42:34.152Z,22.50
2024-04-13T15:45:01.034Z,22.50
2024-04-13T15:47:29.397Z,22.40
2024-04-13T15:49:56.373Z,22.30
2024-04-13T15:52:23.245Z,22.30
2024-04-13T15:54:50.849Z,22.20
2024-04-13T15:57:30.009Z,22.10
2024-04-13T15:59:56.860Z,22.00
2024-04-13T16:02:23.663Z,22.00
2024-04-13T16:04:50.381Z,21.90
2024-04-13T16:07:17.267Z,21.80
2024-04-13T16:09:44.139Z,21.70
2024-04-13T16:12:11.094Z,21.60
2024-04-13T16:14:38.013Z,21.60
2024-04-13T16:17:05.098Z,21.50
2024-04-13T16:19:35.911Z,21.50
2024-04-13T16:22:03.509Z,21.60
2024-04-13T16:24:30.316Z,21.60
2024-04-13T16:26:57.060Z,21.60
2024-04-13T16:29:23.820Z,21.60
2024-04-13T16:31:50.626Z,21.60
2024-04-13T16:34:17.694Z,21.50
2024-04-13T16:36:44.658Z,21.40
2024-04-13T16:39:13.607Z,21.20
2024-04-13T16:41:42.219Z,21.10
2024-04-13T16:44:09.160Z,21.00
2024-04-13T16:46:35.911Z,20.90
2024-04-13T16:49:02.678Z,20.90
2024-04-13T16:51:30.764Z,20.90
2024-04-13T16:53:58.723Z,20.90
2024-04-13T16:56:25.439Z,20.80
2024-04-13T16:58:52.192Z,20.70
2024-04-13T17:01:18.987Z,20.60
2024-04-13T17:03:46.042Z,20.60
2024-04-13T17:06:12.894Z,20.50
2024-04-13T17:08:39.658Z,20.40
2024-04-13T17:11:06.561Z,20.40
2024-04-13T17:13:33.295Z,20.40
2024-04-13T17:16:00.067Z,20.30
2024-04-13T17:18:27.123Z,20.20
2024-04-13T17:21:06.251Z,20.10
2024-04-13T17:23:33.018Z,20.00
2024-04-13T17:25:59.754Z,19.90
2024-04-13T17:28:35.823Z,19.80
2024-04-13T17:31:02.651Z,19.80
2024-04-13T17:33:29.528Z,19.70
2024-04-13T17:36:05.622Z,19.60
2024-04-13T17:38:32.417Z,19.50
2024-04-13T17:41:02.629Z,19.40
2024-04-13T17:43:29.765Z,19.30
2024-04-13T17:45:56.648Z,19.30
2024-04-13T17:48:23.801Z,19.20
2024-04-13T17:50:53.742Z,19.20
2024-04-13T17:53:24.096Z,19.10
2024-04-13T17:55:50.939Z,19.00
2024-04-13T17:58:29.376Z,19.00
2024-04-13T18:00:56.228Z,19.00
2024-04-13T18:03:35.114Z,19.00
2024-04-13T18:06:01.960Z,18.90
2024-04-13T18:08:28.767Z,18.90
2024-04-13T18:10:55.553Z,18.80
2024-04-13T18:13:23.497Z,18.70
2024-04-13T18:15:50.480Z,18.70
2024-04-13T18:18:17.414Z,18.60
2024-04-13T18:20:50.404Z,18.60
2024-04-13T18:23:17.343Z,18.50
2024-04-13T18:25:44.146Z,18.50
2024-04-13T18:28:10.926Z,18.40
2024-04-13T18:30:53.096Z,18.30
2024-04-13T18:33:19.933Z,18.30
2024-04-13T18:35:46.742Z,18.20
2024-04-13T18:38:13.487Z,18.20
2024-04-13T18:40:40.233Z,18.10
2024-04-13T18:43:06.978Z,18.10
2024-04-13T18:45:33.742Z,18.10
2024-04-13T18:48:00.802Z,18.00
2024-04-13T18:50:27.619Z,18.00
2024-04-13T18:52:54.539Z,18.00
2024-04-13T18:55:21.607Z,18.00
2024-04-13T18:57:48.463Z,18.00
2024-04-13T19:00:15.381Z,18.00
2024-04-13T19:02:42.835Z,18.00
2024-04-13T19:05:09.745Z,18.00
2024-04-13T19:10:17.204Z,17.90
2024-04-13T19:12:44.025Z,17.80
2024-04-13T19:15:10.842Z,17.80
2024-04-13T19:17:37.650Z,17.80
2024-04-13T19:20:04.830Z,17.70
2024-04-13T19:22:31.558Z,17.70
2024-04-13T19:25:07.726Z,17.60
2024-04-13T19:27:34.555Z,17.50
2024-04-13T19:30:08.198Z,17.40
2024-04-13T19:32:35.048Z,17.40
2024-04-13T19:35:01.870Z,17.40
2024-04-13T19:37:28.737Z,17.40
2024-04-13T19:39:56.593Z,17.40
2024-04-13T19:42:23.338Z,17.30
2024-04-13T19:44:50.121Z,17.30
2024-04-13T19:47:17.558Z,17.20
2024-04-13T19:49:45.104Z,17.10
2024-04-13T19:52:40.291Z,17.10
2024-04-13T19:55:11.853Z,17.00
2024-04-13T19:57:38.827Z,17.00
2024-04-13T20:00:06.289Z,17.10
2024-04-13T20:02:33.856Z,17.00
2024-04-13T20:05:01.535Z,17.00
2024-04-13T20:07:31.764Z,17.00
2024-04-13T20:10:00.939Z,17.00
2024-04-13T20:12:28.232Z,16.90
2024-04-13T20:17:36.893Z,16.90
2024-04-13T20:20:05.202Z,16.80
2024-04-13T20:22:32.062Z,16.80
2024-04-13T20:24:58.918Z,16.80
2024-04-13T20:27:26.774Z,16.70
2024-04-13T20:29:53.653Z,16.70
2024-04-13T20:32:21.552Z,16.60
2024-04-13T20:34:48.410Z,16.60
2024-04-13T20:37:16.375Z,16.60
2024-04-13T20:39:43.172Z,16.40
2024-04-13T20:42:09.976Z,16.40
2024-04-13T20:44:36.946Z,16.30
2024-04-13T20:47:03.873Z,16.30
2024-04-13T20:49:30.799Z,16.30
2024-04-13T20:52:00.243Z,16.30
2024-04-13T20:54:37.373Z,16.20
2024-04-13T20:57:05.238Z,16.10
2024-04-13T20:59:32.092Z,16.00
2024-04-13T21:01:58.982Z,16.00
2024-04-13T21:04:35.658Z,15.90
2024-04-13T21:07:02.626Z,15.90
2024-04-13T21:09:29.401Z,15.80
2024-04-13T21:11:58.183Z,15.70
2024-04-13T21:14:27.212Z,15.70
2024-04-13T21:16:54.012Z,15.60
2024-04-13T21:19:20.878Z,15.60
2024-04-13T21:21:55.668Z,15.50
2024-04-13T21:24:24.601Z,15.50
2024-04-13T21:27:00.068Z,15.40
2024-04-13T21:29:27.924Z,15.40
2024-04-13T21:31:54.801Z,15.30
2024-04-13T21:34:21.695Z,15.30
2024-04-13T21:36:52.993Z,15.20
2024-04-13T21:41:47.736Z,15.10
2024-04-13T21:44:17.708Z,15.10
2024-04-13T21:46:44.568Z,15.10
2024-04-13T21:49:11.483Z,15.00
2024-04-13T21:51:48.799Z,14.90
2024-04-13T21:54:17.785Z,14.90
2024-04-13T21:56:44.905Z,14.80
2024-04-13T21:59:12.226Z,14.80
2024-04-13T22:01:39.068Z,14.70
2024-04-13T22:04:07.665Z,14.60
2024-04-13T22:06:34.728Z,14.60
2024-04-13T22:09:02.618Z,14.60
2024-04-13T22:11:39.429Z,14.60
2024-04-13T22:14:24.582Z,14.60
2024-04-13T22:16:58.528Z,14.50
2024-04-13T22:19:25.351Z,14.50
2024-04-13T22:21:52.331Z,14.40
2024-04-13T22:24:24.530Z,14.40
2024-04-13T22:27:03.605Z,14.40
2024-04-13T22:29:41.416Z,14.30
2024-04-13T22:32:10.674Z,14.30
2024-04-13T22:34:37.457Z,14.30
2024-04-13T22:37:08.411Z,14.30
2024-04-13T22:39:35.231Z,14.20
2024-04-13T22:42:08.052Z,14.20
2024-04-13T22:44:34.983Z,14.20
2024-04-13T22:47:01.819Z,14.10
2024-04-13T22:49:28.757Z,14.10
2024-04-13T22:52:03.366Z,14.10
2024-04-13T22:54:42.568Z,14.00
2024-04-13T22:57:09.363Z,14.10
2024-04-13T22:59:47.180Z,14.10
2024-04-13T23:02:26.079Z,14.10
2024-04-13T23:04:53.023Z,14.10
2024-04-13T23:07:29.094Z,14.10
2024-04-13T23:09:56.133Z,14.10
2024-04-13T23:12:25.413Z,14.10
2024-04-13T23:14:52.318Z,14.00
2024-04-13T23:17:29.146Z,14.00
2024-04-13T23:20:34.579Z,14.00
2024-04-13T23:23:16.366Z,14.00
2024-04-13T23:26:00.625Z,13.90
2024-04-13T23:28:27.474Z,13.90
2024-04-13T23:30:54.468Z,13.90
2024-04-13T23:33:33.951Z,13.90
2024-04-13T23:36:21.055Z,13.80
2024-04-13T23:38:51.216Z,13.80
2024-04-13T23:41:23.169Z,13.80
2024-04-13T23:43:49.926Z,13.80
2024-04-13T23:46:16.813Z,13.80
2024-04-13T23:48:43.824Z,13.70
2024-04-13T23:51:11.097Z,13.70
2024-04-13T23:53:37.904Z,13.70
2024-04-13T23:56:05.197Z,13.70
2024-04-13T23:58:31.957Z,13.60
